createdAt,value
2023-02-26T00:00:19.936Z,11.55
2023-02-26T00:01:24.958Z,12.51
2023-02-26T00:02:26.941Z,15.19
2023-02-26T00:03:29.118Z,16.14
2023-02-26T00:04:31.106Z,11.57
2023-02-26T00:05:33.097Z,10.60
2023-02-26T00:06:38.038Z,12.81
2023-02-26T00:07:40.944Z,10.48
2023-02-26T00:08:43.280Z,10.50
2023-02-26T00:09:45.394Z,14.15
2023-02-26T00:10:47.370Z,14.13
2023-02-26T00:11:50.668Z,10.84
2023-02-26T00:12:54.276Z,9.61
2023-02-26T00:13:56.845Z,9.57
2023-02-26T00:14:59.765Z,7.96
2023-02-26T00:16:04.748Z,8.60
2023-02-26T00:17:19.631Z,10.14
2023-02-26T00:18:22.390Z,9.63
2023-02-26T00:19:24.712Z,9.83
2023-02-26T00:20:27.614Z,9.88
2023-02-26T00:21:31.752Z,7.98
2023-02-26T00:22:34.348Z,8.71
2023-02-26T00:23:36.509Z,7.59
2023-02-26T00:24:38.370Z,8.83
2023-02-26T00:25:41.637Z,8.46
2023-02-26T00:26:43.755Z,7.51
2023-02-26T00:27:46.449Z,7.43
2023-02-26T00:28:49.479Z,6.19
2023-02-26T00:29:53.654Z,7.76
2023-02-26T00:30:56.938Z,6.81
2023-02-26T00:31:59.589Z,7.11
2023-02-26T00:33:02.612Z,7.78
2023-02-26T00:34:05.406Z,7.67
2023-02-26T00:35:10.892Z,7.00
2023-02-26T00:36:24.293Z,7.87
2023-02-26T00:37:30.319Z,7.73
2023-02-26T00:38:35.790Z,7.47
2023-02-26T00:39:41.446Z,8.16
2023-02-26T00:40:46.626Z,6.89
2023-02-26T00:41:49.966Z,6.93
2023-02-26T00:42:52.740Z,6.82
2023-02-26T00:43:55.616Z,6.74
2023-02-26T00:44:58.834Z,7.11
2023-02-26T00:46:16.759Z,7.22
2023-02-26T00:47:40.870Z,6.58
2023-02-26T00:49:01.957Z,6.04
2023-02-26T00:50:07.784Z,6.93
2023-02-26T00:51:13.455Z,6.92
2023-02-26T00:52:34.254Z,8.92
2023-02-26T00:53:48.407Z,7.86
2023-02-26T00:54:50.345Z,7.23
2023-02-26T00:55:53.867Z,7.98
2023-02-26T00:56:57.480Z,9.39
2023-02-26T00:57:59.453Z,8.03
2023-02-26T00:59:02.390Z,7.57
2023-02-26T01:00:06.380Z,8.91
2023-02-26T01:01:08.858Z,7.91
2023-02-26T01:02:11.695Z,10.19
2023-02-26T01:03:14.273Z,10.51
2023-02-26T01:04:19.820Z,10.63
2023-02-26T01:05:22.540Z,9.22
2023-02-26T01:06:27.927Z,9.24
2023-02-26T01:07:33.613Z,8.71
2023-02-26T01:08:39.312Z,10.23
2023-02-26T01:09:41.846Z,8.36
2023-02-26T01:10:44.923Z,7.32
2023-02-26T01:11:48.863Z,8.18
2023-02-26T01:12:51.777Z,9.81
2023-02-26T01:13:54.566Z,8.27
2023-02-26T01:14:57.485Z,7.89
2023-02-26T01:16:03.281Z,8.10
2023-02-26T01:17:27.291Z,8.25
2023-02-26T01:18:32.993Z,7.97
2023-02-26T01:19:57.088Z,8.06
2023-02-26T01:21:02.365Z,7.31
2023-02-26T01:22:11.130Z,7.59
2023-02-26T01:23:16.059Z,7.14
2023-02-26T01:24:21.998Z,6.98
2023-02-26T01:25:36.609Z,6.87
2023-02-26T01:26:39.047Z,7.61
2023-02-26T01:27:41.499Z,6.82
2023-02-26T01:28:44.781Z,6.12
2023-02-26T01:29:47.560Z,6.36
2023-02-26T01:30:56.660Z,5.90
2023-02-26T01:32:20.728Z,5.98
2023-02-26T01:33:33.079Z,5.59
2023-02-26T01:35:00.109Z,5.96
2023-02-26T01:36:09.611Z,6.63
2023-02-26T01:37:20.800Z,6.28
2023-02-26T01:38:50.993Z,6.16
2023-02-26T01:40:02.517Z,5.98
2023-02-26T01:41:26.830Z,6.12
2023-02-26T01:42:31.466Z,6.49
2023-02-26T01:43:47.592Z,6.67
2023-02-26T01:45:12.861Z,5.79
2023-02-26T01:46:41.885Z,7.00
2023-02-26T01:47:56.195Z,6.17
2023-02-26T01:48:59.187Z,6.31
2023-02-26T01:50:20.499Z,6.36
2023-02-26T01:51:52.386Z,6.65
2023-02-26T01:54:07.582Z,6.47
2023-02-26T01:55:10.532Z,6.30
2023-02-26T01:56:19.106Z,5.93
2023-02-26T01:57:22.706Z,6.69
2023-02-26T01:58:28.526Z,6.58
2023-02-26T01:59:33.217Z,7.68
2023-02-26T02:00:35.747Z,10.20
2023-02-26T02:01:39.475Z,9.69
2023-02-26T02:02:41.997Z,9.27
2023-02-26T02:03:45.288Z,12.04
2023-02-26T02:04:50.381Z,9.00
2023-02-26T02:06:04.785Z,8.99
2023-02-26T02:07:07.581Z,7.63
2023-02-26T02:08:11.481Z,10.65
2023-02-26T02:09:14.292Z,6.39
2023-02-26T02:10:17.631Z,6.70
2023-02-26T02:11:20.285Z,7.26
2023-02-26T02:12:31.925Z,6.13
2023-02-26T02:13:52.702Z,6.56
2023-02-26T02:14:58.941Z,6.89
2023-02-26T02:16:13.665Z,7.69
2023-02-26T02:17:37.448Z,7.07
2023-02-26T02:18:49.214Z,9.24
2023-02-26T02:20:00.483Z,10.23
2023-02-26T02:21:36.924Z,6.28
2023-02-26T02:22:54.644Z,7.62
2023-02-26T02:24:17.273Z,9.39
2023-02-26T02:25:40.027Z,8.22
2023-02-26T02:27:01.248Z,7.67
2023-02-26T02:28:24.596Z,5.74
2023-02-26T02:29:36.216Z,7.37
2023-02-26T02:31:07.821Z,6.60
2023-02-26T02:33:43.299Z,7.51
2023-02-26T02:35:04.427Z,8.71
2023-02-26T02:36:17.380Z,7.74
2023-02-26T02:37:39.948Z,7.11
2023-02-26T02:38:46.082Z,7.81
2023-02-26T02:40:04.036Z,6.49
2023-02-26T02:41:09.717Z,7.60
2023-02-26T02:42:25.406Z,6.71
2023-02-26T02:43:31.367Z,7.24
2023-02-26T02:44:37.447Z,6.26
2023-02-26T02:45:49.284Z,5.52
2023-02-26T02:46:56.342Z,6.63
2023-02-26T02:48:05.395Z,6.81
2023-02-26T02:49:33.661Z,6.76
2023-02-26T02:50:42.369Z,6.56
2023-02-26T02:51:49.759Z,6.13
2023-02-26T02:52:58.328Z,5.80
2023-02-26T02:54:13.358Z,7.02
2023-02-26T02:55:28.262Z,6.17
2023-02-26T02:56:46.168Z,6.13
2023-02-26T02:58:08.513Z,5.64
2023-02-26T02:59:14.190Z,6.44
2023-02-26T03:00:20.000Z,7.86
2023-02-26T03:01:25.650Z,8.51
2023-02-26T03:02:31.590Z,8.67
2023-02-26T03:03:46.758Z,8.41
2023-02-26T03:04:49.301Z,9.54
2023-02-26T03:05:52.369Z,7.01
2023-02-26T03:06:54.677Z,7.36
2023-02-26T03:08:00.323Z,6.44
2023-02-26T03:09:05.719Z,5.54
2023-02-26T03:10:10.664Z,4.93
2023-02-26T03:11:15.859Z,4.88
2023-02-26T03:12:18.649Z,4.75
2023-02-26T03:13:24.711Z,5.46
2023-02-26T03:14:29.090Z,6.28
2023-02-26T03:15:44.044Z,7.76
2023-02-26T03:16:55.734Z,8.62
2023-02-26T03:18:04.653Z,8.16
2023-02-26T03:19:19.558Z,8.73
2023-02-26T03:20:37.073Z,8.30
2023-02-26T03:21:55.085Z,8.39
2023-02-26T03:23:00.916Z,9.97
2023-02-26T03:24:19.767Z,8.58
2023-02-26T03:25:42.032Z,7.80
2023-02-26T03:26:48.224Z,8.18
2023-02-26T03:28:05.475Z,5.90
2023-02-26T03:29:26.735Z,5.78
2023-02-26T03:31:58.578Z,7.60
2023-02-26T03:33:10.508Z,7.62
2023-02-26T03:34:19.111Z,5.84
2023-02-26T03:35:27.847Z,5.47
2023-02-26T03:36:40.717Z,6.43
2023-02-26T03:37:46.400Z,6.70
2023-02-26T03:39:10.614Z,6.81
2023-02-26T03:42:50.086Z,6.07
2023-02-26T03:43:59.854Z,6.46
2023-02-26T03:45:26.175Z,6.31
2023-02-26T03:48:47.809Z,6.85
2023-02-26T03:49:56.510Z,7.04
2023-02-26T03:51:02.281Z,6.38
2023-02-26T03:52:05.662Z,6.69
2023-02-26T03:53:11.940Z,6.52
2023-02-26T03:54:26.904Z,6.07
2023-02-26T03:55:52.911Z,5.84
2023-02-26T03:56:56.693Z,6.08
2023-02-26T03:57:59.352Z,5.81
2023-02-26T03:59:02.515Z,5.04
2023-02-26T04:00:07.081Z,5.68
2023-02-26T04:01:15.508Z,6.18
2023-02-26T04:02:24.557Z,6.62
2023-02-26T04:03:46.381Z,5.77
2023-02-26T04:05:13.713Z,6.59
2023-02-26T04:06:16.498Z,5.56
2023-02-26T04:07:20.339Z,6.19
2023-02-26T04:08:23.713Z,5.64
2023-02-26T04:09:26.370Z,4.99
2023-02-26T04:11:55.710Z,5.47
2023-02-26T04:13:02.504Z,5.92
2023-02-26T04:14:05.567Z,6.23
2023-02-26T04:15:09.011Z,5.92
2023-02-26T04:16:12.218Z,5.81
2023-02-26T04:17:17.427Z,6.31
2023-02-26T04:18:19.962Z,5.68
2023-02-26T04:19:22.275Z,6.57
2023-02-26T04:20:24.766Z,6.02
2023-02-26T04:21:26.752Z,7.20
2023-02-26T04:22:28.770Z,7.68
2023-02-26T04:23:30.649Z,7.41
2023-02-26T04:24:32.673Z,8.09
2023-02-26T04:25:34.554Z,6.95
2023-02-26T04:26:36.645Z,6.66
2023-02-26T04:27:38.724Z,7.09
2023-02-26T04:28:41.432Z,8.45
2023-02-26T04:29:44.416Z,7.31
2023-02-26T04:30:46.827Z,9.08
2023-02-26T04:31:49.932Z,9.21
2023-02-26T04:32:52.064Z,8.18
2023-02-26T04:33:53.946Z,9.19
2023-02-26T04:34:56.465Z,11.13
2023-02-26T04:35:59.806Z,9.76
2023-02-26T04:37:01.857Z,10.71
2023-02-26T04:38:06.043Z,7.88
2023-02-26T04:39:07.952Z,7.99
2023-02-26T04:40:12.717Z,10.70
2023-02-26T04:41:14.769Z,6.84
2023-02-26T04:42:16.794Z,10.69
2023-02-26T04:43:19.172Z,13.27
2023-02-26T04:44:21.142Z,11.36
2023-02-26T04:45:23.035Z,9.23
2023-02-26T04:46:25.505Z,8.97
2023-02-26T04:47:28.664Z,8.65
2023-02-26T04:48:32.741Z,7.44
2023-02-26T04:49:34.813Z,7.08
2023-02-26T04:50:36.822Z,6.71
2023-02-26T04:51:39.372Z,7.05
2023-02-26T04:52:41.275Z,6.57
2023-02-26T04:53:43.313Z,6.31
2023-02-26T04:54:45.296Z,5.80
2023-02-26T04:55:50.726Z,6.81
2023-02-26T04:56:52.296Z,6.02
2023-02-26T04:57:54.167Z,5.92
2023-02-26T04:58:56.412Z,5.79
2023-02-26T04:59:59.484Z,5.10
2023-02-26T05:01:01.752Z,5.97
2023-02-26T05:02:04.426Z,5.43
2023-02-26T05:03:06.506Z,5.82
2023-02-26T05:04:08.698Z,5.55
2023-02-26T05:05:13.406Z,5.54
2023-02-26T05:06:16.144Z,5.86
2023-02-26T05:07:18.098Z,5.70
2023-02-26T05:08:20.188Z,5.64
2023-02-26T05:09:22.175Z,5.32
2023-02-26T05:10:24.752Z,5.73
2023-02-26T05:11:26.820Z,5.41
2023-02-26T05:12:29.225Z,5.61
2023-02-26T05:13:31.144Z,5.82
2023-02-26T05:14:33.149Z,6.17
2023-02-26T05:15:35.194Z,5.92
2023-02-26T05:16:37.723Z,6.15
2023-02-26T05:17:39.629Z,6.33
2023-02-26T05:18:41.544Z,6.42
2023-02-26T05:19:43.671Z,6.10
2023-02-26T05:20:45.672Z,6.12
2023-02-26T05:21:47.662Z,6.31
2023-02-26T05:22:49.826Z,6.69
2023-02-26T05:23:51.736Z,6.59
2023-02-26T05:24:53.611Z,6.69
2023-02-26T05:25:57.419Z,6.84
2023-02-26T05:26:59.886Z,6.35
2023-02-26T05:28:02.152Z,6.18
2023-02-26T05:29:04.140Z,5.83
2023-02-26T05:30:08.773Z,5.97
2023-02-26T05:31:12.731Z,5.82
2023-02-26T05:32:15.289Z,5.91
2023-02-26T05:33:18.296Z,6.42
2023-02-26T05:34:20.460Z,6.39
2023-02-26T05:35:22.693Z,5.99
2023-02-26T05:36:25.293Z,6.33
2023-02-26T05:37:27.546Z,6.25
2023-02-26T05:38:29.492Z,6.38
2023-02-26T05:39:32.867Z,6.66
2023-02-26T05:40:34.988Z,5.35
2023-02-26T05:41:37.381Z,6.13
2023-02-26T05:42:39.839Z,5.32
2023-02-26T05:43:43.142Z,5.27
2023-02-26T05:44:45.071Z,5.67
2023-02-26T05:45:49.816Z,5.94
2023-02-26T05:46:52.136Z,5.47
2023-02-26T05:47:54.056Z,5.62
2023-02-26T05:48:57.212Z,5.45
2023-02-26T05:49:59.553Z,5.08
2023-02-26T05:51:03.657Z,5.41
2023-02-26T05:52:05.718Z,6.02
2023-02-26T05:53:07.770Z,5.72
2023-02-26T05:54:10.190Z,5.71
2023-02-26T05:55:13.213Z,5.49
2023-02-26T05:56:17.838Z,5.77
2023-02-26T05:57:20.074Z,5.37
2023-02-26T05:58:22.452Z,5.88
2023-02-26T05:59:24.807Z,6.42
2023-02-26T06:00:27.500Z,6.09
2023-02-26T06:01:29.397Z,6.31
2023-02-26T06:02:31.499Z,6.63
2023-02-26T06:03:33.503Z,7.27
2023-02-26T06:04:35.664Z,7.99
2023-02-26T06:05:37.663Z,8.55
2023-02-26T06:06:40.441Z,8.97
2023-02-26T06:07:43.030Z,8.92
2023-02-26T06:08:45.617Z,7.54
2023-02-26T06:09:48.466Z,7.98
2023-02-26T06:10:51.434Z,7.38
2023-02-26T06:11:53.495Z,7.57
2023-02-26T06:12:55.400Z,7.67
2023-02-26T06:13:57.723Z,7.53
2023-02-26T06:15:00.114Z,7.59
2023-02-26T06:16:02.565Z,7.89
2023-02-26T06:17:05.415Z,6.95
2023-02-26T06:18:07.632Z,7.33
2023-02-26T06:19:09.905Z,7.34
2023-02-26T06:20:13.553Z,6.67
2023-02-26T06:21:18.191Z,7.47
2023-02-26T06:22:21.118Z,7.50
2023-02-26T06:23:23.114Z,7.26
2023-02-26T06:24:25.520Z,6.53
2023-02-26T06:25:27.406Z,7.06
2023-02-26T06:26:29.980Z,6.93
2023-02-26T06:27:32.031Z,7.05
2023-02-26T06:28:33.916Z,6.82
2023-02-26T06:29:35.891Z,6.35
2023-02-26T06:30:37.914Z,6.71
2023-02-26T06:31:39.993Z,6.89
2023-02-26T06:32:42.644Z,6.85
2023-02-26T06:33:44.926Z,7.36
2023-02-26T06:34:46.821Z,7.00
2023-02-26T06:35:49.097Z,6.54
2023-02-26T06:36:51.905Z,7.96
2023-02-26T06:37:53.752Z,6.97
2023-02-26T06:38:56.546Z,7.25
2023-02-26T06:39:58.537Z,7.62
2023-02-26T06:41:00.583Z,6.54
2023-02-26T06:42:02.444Z,7.06
2023-02-26T06:43:04.638Z,7.56
2023-02-26T06:44:07.130Z,7.73
2023-02-26T06:45:10.714Z,7.23
2023-02-26T06:46:13.453Z,6.36
2023-02-26T06:47:17.087Z,6.64
2023-02-26T06:48:18.989Z,6.03
2023-02-26T06:49:21.012Z,6.24
2023-02-26T06:50:23.139Z,6.41
2023-02-26T06:51:25.689Z,6.73
2023-02-26T06:52:27.595Z,6.20
2023-02-26T06:53:29.476Z,6.10
2023-02-26T06:54:31.354Z,6.35
2023-02-26T06:55:33.338Z,5.97
2023-02-26T06:56:35.493Z,5.89
2023-02-26T06:57:37.602Z,5.86
2023-02-26T06:58:39.664Z,5.77
2023-02-26T06:59:41.703Z,6.11
2023-02-26T07:00:44.307Z,5.76
2023-02-26T07:01:46.330Z,5.55
2023-02-26T07:02:49.608Z,5.93
2023-02-26T07:03:51.509Z,5.88
2023-02-26T07:04:53.545Z,5.51
2023-02-26T07:05:55.594Z,5.88
2023-02-26T07:06:57.620Z,5.75
2023-02-26T07:07:59.507Z,5.59
2023-02-26T07:09:01.430Z,5.83
2023-02-26T07:10:05.044Z,5.57
2023-02-26T07:11:08.439Z,5.86
2023-02-26T07:12:10.330Z,5.61
2023-02-26T07:13:13.850Z,5.65
2023-02-26T07:14:19.017Z,5.37
2023-02-26T07:15:20.957Z,5.79
2023-02-26T07:16:23.222Z,5.88
2023-02-26T07:17:25.271Z,5.67
2023-02-26T07:18:27.154Z,5.93
2023-02-26T07:19:29.201Z,6.12
2023-02-26T07:20:31.631Z,5.90
2023-02-26T07:21:33.536Z,5.74
2023-02-26T07:22:36.907Z,6.33
2023-02-26T07:23:39.608Z,5.66
2023-02-26T07:24:42.700Z,5.45
2023-02-26T07:25:44.702Z,5.98
2023-02-26T07:26:46.959Z,6.21
2023-02-26T07:27:48.822Z,5.63
2023-02-26T07:28:50.704Z,6.68
2023-02-26T07:29:52.611Z,7.47
2023-02-26T07:30:55.963Z,7.01
2023-02-26T07:31:58.188Z,6.91
2023-02-26T07:33:00.952Z,6.68
2023-02-26T07:34:04.981Z,6.15
2023-02-26T07:35:08.080Z,6.49
2023-02-26T07:36:10.913Z,6.07
2023-02-26T07:37:14.181Z,6.09
2023-02-26T07:38:17.561Z,6.84
2023-02-26T07:39:19.913Z,6.42
2023-02-26T07:40:22.029Z,6.95
2023-02-26T07:41:24.382Z,6.34
2023-02-26T07:42:26.618Z,6.26
2023-02-26T07:43:29.517Z,5.82
2023-02-26T07:44:31.576Z,5.96
2023-02-26T07:45:33.593Z,7.09
2023-02-26T07:46:35.729Z,6.93
2023-02-26T07:47:38.079Z,7.28
2023-02-26T07:48:40.488Z,5.89
2023-02-26T07:49:44.606Z,6.75
2023-02-26T07:50:46.866Z,7.33
2023-02-26T07:51:48.881Z,7.42
2023-02-26T07:52:52.208Z,6.73
2023-02-26T07:53:54.154Z,6.99
2023-02-26T07:54:56.025Z,6.90
2023-02-26T07:55:58.125Z,7.16
2023-02-26T07:57:00.712Z,6.83
2023-02-26T07:58:02.668Z,7.23
2023-02-26T07:59:05.133Z,6.59
2023-02-26T08:00:09.892Z,6.80
2023-02-26T08:01:12.104Z,7.22
2023-02-26T08:02:14.035Z,6.65
2023-02-26T08:03:15.929Z,7.25
2023-02-26T08:04:17.941Z,5.97
2023-02-26T08:05:20.155Z,6.61
2023-02-26T08:06:22.196Z,6.39
2023-02-26T08:07:24.085Z,6.17
2023-02-26T08:08:27.197Z,5.60
2023-02-26T08:09:29.686Z,5.84
2023-02-26T08:10:34.626Z,5.43
2023-02-26T08:11:36.690Z,5.66
2023-02-26T08:12:38.805Z,6.17
2023-02-26T08:13:40.797Z,6.78
2023-02-26T08:14:44.433Z,6.63
2023-02-26T08:17:59.957Z,6.32
2023-02-26T08:19:01.869Z,6.16
2023-02-26T08:20:05.029Z,6.75
2023-02-26T08:21:07.027Z,6.22
2023-02-26T08:22:08.966Z,6.85
2023-02-26T08:23:10.824Z,6.25
2023-02-26T08:24:13.491Z,6.03
2023-02-26T08:25:15.717Z,6.77
2023-02-26T08:26:19.296Z,6.28
2023-02-26T08:27:21.460Z,6.46
2023-02-26T08:28:23.352Z,6.15
2023-02-26T08:29:25.360Z,6.09
2023-02-26T08:30:27.511Z,5.71
2023-02-26T08:31:30.806Z,6.31
2023-02-26T08:32:33.666Z,5.99
2023-02-26T08:33:35.617Z,6.25
2023-02-26T08:34:37.698Z,6.11
2023-02-26T08:35:39.764Z,5.96
2023-02-26T08:36:42.132Z,6.11
2023-02-26T08:37:44.056Z,5.93
2023-02-26T08:38:45.944Z,6.50
2023-02-26T08:39:47.838Z,6.43
2023-02-26T08:40:50.337Z,6.28
2023-02-26T08:41:52.233Z,5.76
2023-02-26T08:42:54.227Z,6.33
2023-02-26T08:43:56.231Z,6.07
2023-02-26T08:44:58.137Z,6.41
2023-02-26T08:46:00.228Z,6.23
2023-02-26T08:47:02.618Z,6.55
2023-02-26T08:48:07.497Z,6.33
2023-02-26T08:49:10.710Z,6.63
2023-02-26T08:50:12.771Z,5.99
2023-02-26T08:51:14.820Z,6.93
2023-02-26T08:52:16.686Z,6.21
2023-02-26T08:53:18.591Z,6.47
2023-02-26T08:54:20.454Z,5.88
2023-02-26T08:55:22.767Z,5.99
2023-02-26T08:56:25.352Z,6.17
2023-02-26T08:57:27.559Z,6.18
2023-02-26T08:58:31.269Z,5.81
2023-02-26T08:59:36.482Z,5.72
2023-02-26T09:00:38.605Z,5.97
2023-02-26T09:01:40.540Z,5.99
2023-02-26T09:02:42.517Z,5.88
2023-02-26T09:03:44.498Z,6.05
2023-02-26T09:04:46.410Z,6.35
2023-02-26T09:05:49.276Z,6.07
2023-02-26T09:06:51.640Z,6.60
2023-02-26T09:07:53.570Z,6.01
2023-02-26T09:08:55.466Z,6.03
2023-02-26T09:09:57.379Z,6.25
2023-02-26T09:11:01.484Z,6.09
2023-02-26T09:12:04.623Z,6.47
2023-02-26T09:13:06.562Z,6.99
2023-02-26T09:14:08.434Z,6.27
2023-02-26T09:15:12.141Z,5.99
2023-02-26T09:16:14.849Z,6.41
2023-02-26T09:17:17.033Z,6.19
2023-02-26T09:18:18.955Z,6.21
2023-02-26T09:19:22.153Z,7.16
2023-02-26T09:20:24.501Z,6.40
2023-02-26T09:21:28.028Z,6.81
2023-02-26T09:22:30.565Z,6.19
2023-02-26T09:23:32.410Z,5.79
2023-02-26T09:24:34.666Z,5.99
2023-02-26T09:25:36.829Z,6.20
2023-02-26T09:26:38.829Z,5.67
2023-02-26T09:27:42.385Z,5.33
2023-02-26T09:28:44.448Z,6.41
2023-02-26T09:29:46.710Z,6.13
2023-02-26T09:30:51.905Z,6.21
2023-02-26T09:31:54.382Z,6.33
2023-02-26T09:32:57.527Z,5.91
2023-02-26T09:33:59.439Z,5.80
2023-02-26T09:35:01.321Z,5.99
2023-02-26T09:36:04.482Z,5.67
2023-02-26T09:37:08.294Z,6.23
2023-02-26T09:38:10.192Z,5.58
2023-02-26T09:39:12.924Z,5.54
2023-02-26T09:40:21.915Z,5.53
2023-02-26T09:41:33.676Z,5.99
2023-02-26T09:42:53.927Z,6.47
2023-02-26T09:44:02.338Z,5.55
2023-02-26T09:45:07.519Z,5.98
2023-02-26T09:47:32.652Z,5.61
2023-02-26T09:48:39.600Z,5.54
2023-02-26T09:49:54.311Z,5.91
2023-02-26T09:50:58.868Z,6.01
2023-02-26T09:52:13.807Z,6.07
2023-02-26T09:53:34.610Z,5.79
2023-02-26T09:54:43.316Z,6.34
2023-02-26T09:55:48.352Z,5.90
2023-02-26T09:56:52.818Z,5.86
2023-02-26T09:58:04.673Z,5.86
2023-02-26T09:59:09.500Z,6.49
2023-02-26T10:00:35.363Z,5.63
2023-02-26T10:01:50.331Z,6.47
2023-02-26T10:03:18.738Z,5.88
2023-02-26T10:04:47.338Z,6.17
2023-02-26T10:06:11.467Z,5.81
2023-02-26T10:10:10.196Z,6.22
2023-02-26T10:11:39.038Z,5.69
2023-02-26T10:12:43.383Z,6.29
2023-02-26T10:13:58.703Z,6.29
2023-02-26T10:15:12.152Z,6.08
2023-02-26T10:16:18.133Z,5.57
2023-02-26T10:17:35.681Z,5.79
2023-02-26T10:18:46.359Z,6.18
2023-02-26T10:19:52.127Z,5.27
2023-02-26T10:21:16.698Z,5.17
2023-02-26T10:22:28.232Z,5.84
2023-02-26T10:23:44.006Z,6.14
2023-02-26T10:24:49.953Z,5.93
2023-02-26T10:26:18.655Z,5.48
2023-02-26T10:27:24.431Z,5.39
2023-02-26T10:28:36.265Z,5.64
2023-02-26T10:29:50.676Z,5.89
2023-02-26T10:31:02.535Z,5.66
2023-02-26T10:32:11.277Z,5.24
2023-02-26T10:33:28.965Z,5.29
2023-02-26T10:37:22.108Z,5.17
2023-02-26T10:38:27.532Z,5.58
2023-02-26T10:39:33.615Z,6.68
2023-02-26T10:40:54.593Z,6.13
2023-02-26T10:41:59.582Z,6.66
2023-02-26T10:43:19.789Z,5.97
2023-02-26T10:44:25.573Z,5.56
2023-02-26T10:45:43.393Z,5.91
2023-02-26T10:46:52.104Z,5.84
2023-02-26T10:48:06.520Z,5.45
2023-02-26T10:49:24.562Z,6.28
2023-02-26T10:50:27.754Z,6.62
2023-02-26T10:51:38.770Z,6.00
2023-02-26T10:52:44.185Z,6.46
2023-02-26T10:53:55.967Z,6.14
2023-02-26T10:55:19.944Z,6.11
2023-02-26T10:56:30.404Z,6.01
2023-02-26T10:57:36.158Z,5.54
2023-02-26T10:58:38.432Z,5.52
2023-02-26T10:59:40.604Z,5.50
2023-02-26T11:00:49.401Z,6.12
2023-02-26T11:01:52.344Z,5.97
2023-02-26T11:02:56.459Z,5.72
2023-02-26T11:04:01.934Z,6.66
2023-02-26T11:05:08.941Z,6.59
2023-02-26T11:06:15.026Z,7.27
2023-02-26T11:07:17.435Z,6.40
2023-02-26T11:08:27.938Z,6.23
2023-02-26T11:09:42.716Z,5.86
2023-02-26T11:10:48.595Z,5.88
2023-02-26T11:11:57.306Z,6.56
2023-02-26T11:12:59.235Z,5.93
2023-02-26T11:14:01.935Z,5.03
2023-02-26T11:15:04.921Z,5.67
2023-02-26T11:16:13.737Z,5.28
2023-02-26T11:17:25.216Z,5.45
2023-02-26T11:19:34.566Z,5.46
2023-02-26T11:20:44.037Z,6.22
2023-02-26T11:21:46.885Z,5.63
2023-02-26T11:22:52.147Z,5.84
2023-02-26T11:24:09.812Z,5.56
2023-02-26T11:25:15.516Z,5.67
2023-02-26T11:26:19.321Z,5.31
2023-02-26T11:27:27.858Z,5.73
2023-02-26T11:28:39.556Z,5.67
2023-02-26T11:29:44.306Z,6.44
2023-02-26T11:30:46.980Z,6.40
2023-02-26T11:31:55.641Z,5.99
2023-02-26T11:33:00.533Z,6.29
2023-02-26T11:34:05.486Z,5.83
2023-02-26T11:35:09.841Z,6.55
2023-02-26T11:36:15.422Z,6.67
2023-02-26T11:37:21.323Z,6.48
2023-02-26T11:38:26.212Z,6.77
2023-02-26T11:39:31.387Z,6.72
2023-02-26T11:40:39.682Z,6.04
2023-02-26T11:41:45.325Z,6.92
2023-02-26T11:42:53.369Z,6.51
2023-02-26T11:44:01.980Z,6.45
2023-02-26T11:45:06.538Z,7.72
2023-02-26T11:46:10.411Z,7.04
2023-02-26T11:47:19.154Z,7.31
2023-02-26T11:48:25.234Z,7.27
2023-02-26T11:49:28.840Z,6.61
2023-02-26T11:50:34.383Z,8.16
2023-02-26T11:51:36.469Z,7.93
2023-02-26T11:52:44.403Z,7.02
2023-02-26T11:53:55.335Z,6.88
2023-02-26T11:55:01.090Z,7.32
2023-02-26T11:56:09.741Z,6.83
2023-02-26T11:57:21.140Z,8.85
2023-02-26T11:59:30.462Z,7.17
2023-02-26T12:00:38.561Z,6.51
2023-02-26T12:01:41.010Z,6.26
2023-02-26T12:02:42.967Z,6.71
2023-02-26T12:03:48.108Z,6.91
2023-02-26T12:04:56.719Z,6.25
2023-02-26T12:06:01.047Z,5.78
2023-02-26T12:07:03.059Z,6.29
2023-02-26T12:10:40.676Z,7.05
2023-02-26T12:12:21.518Z,6.42
2023-02-26T12:13:38.869Z,6.09
2023-02-26T12:14:47.741Z,6.12
2023-02-26T12:15:56.188Z,7.29
2023-02-26T12:17:08.498Z,6.91
2023-02-26T12:18:25.791Z,7.57
2023-02-26T12:19:40.603Z,7.12
2023-02-26T12:20:46.417Z,6.87
2023-02-26T12:22:16.705Z,6.64
2023-02-26T12:23:43.102Z,6.01
2023-02-26T12:25:18.069Z,6.33
2023-02-26T12:26:27.932Z,7.23
2023-02-26T12:27:50.186Z,6.55
2023-02-26T12:29:05.173Z,6.82
2023-02-26T12:30:23.125Z,6.62
2023-02-26T12:31:43.706Z,6.13
2023-02-26T12:33:21.691Z,6.18
2023-02-26T12:34:45.269Z,6.29
2023-02-26T12:36:07.492Z,6.47
2023-02-26T12:37:34.036Z,6.19
2023-02-26T12:39:04.461Z,6.03
2023-02-26T12:40:28.926Z,6.81
2023-02-26T12:41:40.568Z,6.73
2023-02-26T12:43:03.109Z,6.69
2023-02-26T12:44:08.827Z,6.76
2023-02-26T12:48:38.485Z,7.38
2023-02-26T12:49:53.313Z,8.03
2023-02-26T12:51:03.446Z,7.42
2023-02-26T12:52:30.135Z,7.68
2023-02-26T12:53:42.030Z,7.14
2023-02-26T12:54:53.579Z,6.73
2023-02-26T12:56:28.510Z,7.19
2023-02-26T12:57:46.152Z,7.13
2023-02-26T12:59:12.702Z,6.84
2023-02-26T13:02:07.093Z,7.31
2023-02-26T13:03:21.511Z,7.17
2023-02-26T13:04:47.399Z,6.56
2023-02-26T13:06:02.179Z,6.02
2023-02-26T13:07:13.630Z,6.31
2023-02-26T13:09:58.004Z,6.35
2023-02-26T13:11:23.885Z,6.78
2023-02-26T13:12:29.972Z,6.57
2023-02-26T13:13:54.063Z,7.41
2023-02-26T13:15:27.401Z,7.25
2023-02-26T13:16:54.176Z,6.69
2023-02-26T13:18:05.640Z,7.16
2023-02-26T13:20:26.195Z,7.74
2023-02-26T13:21:37.992Z,6.81
2023-02-26T13:22:50.338Z,7.19
2023-02-26T13:23:56.069Z,6.93
2023-02-26T13:25:08.746Z,6.61
2023-02-26T13:26:13.370Z,6.62
2023-02-26T13:27:17.246Z,6.59
2023-02-26T13:28:25.691Z,7.94
2023-02-26T13:29:37.327Z,7.61
2023-02-26T13:30:43.145Z,6.69
2023-02-26T13:31:49.040Z,6.50
2023-02-26T13:32:55.494Z,7.02
2023-02-26T13:34:01.258Z,6.51
2023-02-26T13:35:07.498Z,6.78
2023-02-26T13:36:11.598Z,6.38
2023-02-26T13:37:17.287Z,6.64
2023-02-26T13:38:22.984Z,6.64
2023-02-26T13:39:46.970Z,6.23
2023-02-26T13:40:53.926Z,6.93
2023-02-26T13:42:02.671Z,6.67
2023-02-26T13:43:26.561Z,6.36
2023-02-26T13:44:35.316Z,6.64
2023-02-26T13:45:52.577Z,6.98
2023-02-26T13:47:09.737Z,7.63
2023-02-26T13:48:33.448Z,7.28
2023-02-26T13:50:01.637Z,6.95
2023-02-26T13:51:13.261Z,6.06
2023-02-26T13:52:27.734Z,6.22
2023-02-26T13:53:42.425Z,6.28
2023-02-26T13:54:45.622Z,6.07
2023-02-26T13:55:51.845Z,6.34
2023-02-26T13:57:29.516Z,6.49
2023-02-26T13:58:38.240Z,6.04
2023-02-26T13:59:56.145Z,6.18
2023-02-26T14:01:08.043Z,5.92
2023-02-26T14:02:31.566Z,6.85
2023-02-26T14:03:55.347Z,6.68
2023-02-26T14:04:59.747Z,6.98
2023-02-26T14:06:41.948Z,6.48
2023-02-26T14:09:25.715Z,6.59
2023-02-26T14:10:35.380Z,6.64
2023-02-26T14:11:43.952Z,5.99
2023-02-26T14:12:49.641Z,6.41
2023-02-26T14:14:13.513Z,6.14
2023-02-26T14:15:27.755Z,6.12
2023-02-26T14:16:33.579Z,6.28
2023-02-26T14:17:38.734Z,6.35
2023-02-26T14:18:43.996Z,5.98
2023-02-26T14:19:55.552Z,6.64
2023-02-26T14:21:35.569Z,6.64
2023-02-26T14:22:38.154Z,7.24
2023-02-26T14:23:43.365Z,6.47
2023-02-26T14:26:15.294Z,6.68
2023-02-26T14:27:20.971Z,6.18
2023-02-26T14:28:29.444Z,6.16
2023-02-26T14:29:58.149Z,5.81
2023-02-26T14:31:07.064Z,6.25
2023-02-26T14:32:12.985Z,6.24
2023-02-26T14:33:18.833Z,5.47
2023-02-26T14:34:30.501Z,5.75
2023-02-26T14:35:48.087Z,6.45
2023-02-26T14:37:06.176Z,6.14
2023-02-26T14:38:30.657Z,5.61
2023-02-26T14:39:45.138Z,5.64
2023-02-26T14:40:59.389Z,5.67
2023-02-26T14:42:05.083Z,5.64
2023-02-26T14:43:10.812Z,5.78
2023-02-26T14:44:22.701Z,5.80
2023-02-26T14:45:28.527Z,6.22
2023-02-26T14:46:30.724Z,6.25
2023-02-26T14:47:33.589Z,6.41
2023-02-26T14:48:37.300Z,6.53
2023-02-26T14:49:42.523Z,6.92
2023-02-26T14:51:04.364Z,5.91
2023-02-26T14:52:43.954Z,5.82
2023-02-26T14:54:04.973Z,5.43
2023-02-26T14:55:27.740Z,6.11
2023-02-26T14:57:04.084Z,5.66
2023-02-26T14:58:27.662Z,6.72
2023-02-26T14:59:41.732Z,5.83
2023-02-26T15:01:20.628Z,6.24
2023-02-26T15:02:19.967Z,6.42
2023-02-26T15:03:43.943Z,6.54
2023-02-26T15:04:52.724Z,6.10
2023-02-26T15:06:30.639Z,6.12
2023-02-26T15:07:46.160Z,6.57
2023-02-26T15:09:08.545Z,6.83
2023-02-26T15:10:36.056Z,6.54
2023-02-26T15:12:00.804Z,6.41
2023-02-26T15:13:20.883Z,7.09
2023-02-26T15:14:50.698Z,6.68
2023-02-26T15:16:13.370Z,7.71
2023-02-26T15:17:39.224Z,7.24
2023-02-26T15:18:50.712Z,7.96
2023-02-26T15:21:34.954Z,8.26
2023-02-26T15:22:57.524Z,7.45
2023-02-26T15:24:01.020Z,7.08
2023-02-26T15:25:07.070Z,7.34
2023-02-26T15:26:18.989Z,6.57
2023-02-26T15:28:31.053Z,7.07
2023-02-26T15:29:36.848Z,6.87
2023-02-26T15:30:42.405Z,6.65
2023-02-26T15:31:48.612Z,7.28
2023-02-26T15:32:56.262Z,7.07
2023-02-26T15:34:00.266Z,6.56
2023-02-26T15:35:20.412Z,6.00
2023-02-26T15:36:22.753Z,6.73
2023-02-26T15:37:27.125Z,6.87
2023-02-26T15:38:31.224Z,6.89